Time;durP1;ratioP1;P1;durP2;ratioP2;P2;SDS_P1;SDS_P2;PMS_P1;PMS_P2;Temp;Humidity;BMP_temperature;BMP_pressure;BME280_temperature;BME280_humidity;BME280_pressure;Samples;Min_cycle;Max_cycle;Signal;HPM_P1;HPM_P2
2023/06/19 00:01:43;;;;;;;5.80;3.80;;;20.10;99.90;;;;;;5117253;28;20206;-42
2023/06/19 00:04:09;;;;;;;4.47;3.40;;;20.10;99.90;;;;;;5117126;28;20209;-40
2023/06/19 00:06:35;;;;;;;4.60;3.80;;;20.00;99.90;;;;;;5117119;28;20189;-43
2023/06/19 00:09:01;;;;;;;3.90;3.60;;;20.00;99.90;;;;;;5117302;28;20521;-41
2023/06/19 00:11:26;;;;;;;4.33;3.77;;;20.00;99.90;;;;;;5116908;28;20194;-42
2023/06/19 00:13:52;;;;;;;3.97;3.57;;;19.90;99.90;;;;;;5116921;28;20272;-41
2023/06/19 00:16:19;;;;;;;3.63;3.33;;;19.90;99.90;;;;;;5117168;28;20270;-41
2023/06/19 00:18:45;;;;;;;4.13;3.70;;;19.90;99.90;;;;;;5116951;28;20170;-41
2023/06/19 00:21:10;;;;;;;4.43;3.30;;;19.80;99.90;;;;;;5116802;28;20192;-41
2023/06/19 00:23:36;;;;;;;4.80;3.53;;;19.80;99.90;;;;;;5116707;28;20182;-43
2023/06/19 00:26:02;;;;;;;4.17;3.33;;;19.80;99.90;;;;;;5116738;28;20181;-43
2023/06/19 00:28:28;;;;;;;3.77;3.40;;;19.70;99.90;;;;;;5117241;28;20186;-40
2023/06/19 00:30:53;;;;;;;4.67;3.33;;;19.70;99.90;;;;;;5116774;28;20198;-41
2023/06/19 00:33:19;;;;;;;3.83;3.40;;;19.70;99.90;;;;;;5117163;28;20290;-43
2023/06/19 00:35:44;;;;;;;5.67;4.00;;;19.60;99.90;;;;;;5116428;28;20206;-41
2023/06/19 00:38:12;;;;;;;3.90;3.50;;;19.60;99.90;;;;;;5116493;28;20178;-43
2023/06/19 00:40:37;;;;;;;4.43;3.50;;;19.60;99.90;;;;;;5117236;28;20174;-41
2023/06/19 00:43:03;;;;;;;5.87;3.33;;;19.50;99.90;;;;;;5116474;28;20183;-44
2023/06/19 00:45:29;;;;;;;4.50;3.37;;;19.40;99.90;;;;;;5116301;28;20266;-43
2023/06/19 00:47:56;;;;;;;6.07;3.70;;;19.40;99.90;;;;;;5116299;28;20227;-41
2023/06/19 00:50:22;;;;;;;5.87;3.50;;;19.40;99.90;;;;;;5116140;28;20202;-43
2023/06/19 00:52:48;;;;;;;4.97;3.33;;;19.40;99.90;;;;;;5116208;28;20534;-45
2023/06/19 00:55:15;;;;;;;6.00;3.90;;;19.40;99.90;;;;;;5116025;28;20190;-40
2023/06/19 00:57:42;;;;;;;3.90;3.60;;;19.30;99.90;;;;;;5116375;28;20562;-44
2023/06/19 01:00:10;;;;;;;3.97;3.57;;;19.30;99.90;;;;;;5115803;28;20532;-44
2023/06/19 01:02:36;;;;;;;6.97;4.07;;;19.30;99.90;;;;;;5116093;28;20634;-42
2023/06/19 01:05:03;;;;;;;5.03;4.07;;;19.30;99.90;;;;;;5116193;28;20197;-42
2023/06/19 01:07:51;;;;;;;5.27;3.70;;;19.30;99.90;;;;;;5116163;28;20166;-42
2023/06/19 01:10:26;;;;;;;5.87;3.70;;;19.30;99.90;;;;;;5115837;28;20198;-41
2023/06/19 01:13:02;;;;;;;6.80;3.70;;;19.40;99.90;;;;;;5116312;28;20505;-42
2023/06/19 01:15:29;;;;;;;4.10;3.70;;;19.40;99.90;;;;;;5115922;28;20692;-40
2023/06/19 01:17:57;;;;;;;4.97;3.63;;;19.40;99.90;;;;;;5116436;28;20201;-43
2023/06/19 01:20:23;;;;;;;7.83;4.00;;;19.30;99.90;;;;;;5117021;28;20287;-42
2023/06/19 01:22:48;;;;;;;4.20;3.80;;;19.40;99.90;;;;;;5116357;28;20261;-40
2023/06/19 01:25:14;;;;;;;6.73;3.80;;;19.40;99.90;;;;;;5115949;28;20232;-40
2023/06/19 01:27:42;;;;;;;4.43;4.03;;;19.40;99.90;;;;;;5115823;28;20182;-41
2023/06/19 01:30:10;;;;;;;4.17;3.87;;;19.40;99.90;;;;;;5115397;28;20228;-41
2023/06/19 01:33:03;;;;;;;5.37;4.20;;;19.40;99.90;;;;;;5115712;28;20554;-41
2023/06/19 01:35:32;;;;;;;6.67;4.00;;;19.40;99.90;;;;;;5115340;28;20202;-39
2023/06/19 01:38:00;;;;;;;4.33;3.93;;;19.40;99.90;;;;;;5115374;28;20170;-41
2023/06/19 01:40:31;;;;;;;4.23;3.77;;;19.40;99.90;;;;;;5115232;28;20268;-41
2023/06/19 01:42:59;;;;;;;4.53;4.00;;;19.40;99.90;;;;;;5115102;28;20213;-42
2023/06/19 01:45:25;;;;;;;4.80;4.40;;;19.40;99.90;;;;;;5115334;28;20206;-41
2023/06/19 01:47:50;;;;;;;4.53;3.93;;;19.40;99.90;;;;;;5115155;28;20178;-42
2023/06/19 01:50:16;;;;;;;5.00;3.80;;;19.50;99.90;;;;;;5115241;28;20202;-40
2023/06/19 01:52:43;;;;;;;3.97;3.37;;;19.50;99.90;;;;;;5115082;28;20184;-41
2023/06/19 01:55:11;;;;;;;4.43;3.67;;;19.60;99.90;;;;;;5114967;28;20218;-40
2023/06/19 01:57:37;;;;;;;4.17;3.77;;;19.80;99.90;;;;;;5115322;28;20243;-40
2023/06/19 02:00:05;;;;;;;7.30;3.47;;;19.90;99.90;;;;;;5115189;28;20171;-43
2023/06/19 02:02:31;;;;;;;4.73;3.43;;;20.00;99.90;;;;;;5115107;28;20189;-41
2023/06/19 02:04:57;;;;;;;3.47;3.17;;;20.10;99.90;;;;;;5114759;28;20190;-43
2023/06/19 02:07:23;;;;;;;5.80;3.80;;;20.20;99.90;;;;;;5114818;28;20192;-40
2023/06/19 02:09:49;;;;;;;3.67;3.20;;;20.30;99.90;;;;;;5114692;28;20178;-41
2023/06/19 02:12:14;;;;;;;3.57;3.27;;;20.40;99.90;;;;;;5096151;28;20240;-40
2023/06/19 02:14:40;;;;;;;3.93;3.20;;;20.40;99.90;;;;;;5114578;28;20292;-40
2023/06/19 02:17:05;;;;;;;4.00;2.83;;;20.50;99.90;;;;;;5114616;28;20178;-41
2023/06/19 02:19:31;;;;;;;4.57;2.77;;;20.50;99.90;;;;;;5114735;28;20185;-42
2023/06/19 02:21:56;;;;;;;4.40;3.10;;;20.60;99.90;;;;;;5114728;28;20189;-39
2023/06/19 02:24:22;;;;;;;2.97;2.40;;;20.50;99.90;;;;;;5114361;28;20206;-42
2023/06/19 02:26:48;;;;;;;3.27;2.87;;;20.50;99.90;;;;;;5114400;28;20553;-40
2023/06/19 02:29:14;;;;;;;4.43;2.57;;;20.50;99.90;;;;;;5114523;28;20552;-42
2023/06/19 02:31:40;;;;;;;5.63;2.60;;;20.40;99.90;;;;;;5114454;28;20198;-41
2023/06/19 02:34:05;;;;;;;4.40;3.00;;;20.40;99.90;;;;;;5114401;28;20206;-42
2023/06/19 02:36:31;;;;;;;3.27;2.90;;;20.30;99.90;;;;;;5114230;28;20174;-42
2023/06/19 02:38:57;;;;;;;2.93;2.63;;;20.30;99.90;;;;;;5114231;28;20219;-40
2023/06/19 02:41:22;;;;;;;3.13;2.83;;;20.20;99.90;;;;;;5114151;28;20194;-40
2023/06/19 02:43:48;;;;;;;3.33;3.03;;;20.20;99.90;;;;;;5114316;28;20259;-39
2023/06/19 02:46:14;;;;;;;4.00;2.90;;;20.10;99.90;;;;;;5114089;28;20181;-38
2023/06/19 02:48:39;;;;;;;3.00;2.70;;;20.10;99.90;;;;;;5113985;28;20186;-42
2023/06/19 02:51:05;;;;;;;3.10;2.60;;;20.10;99.90;;;;;;5114212;28;20741;-42
2023/06/19 02:53:30;;;;;;;2.77;2.53;;;20.00;99.90;;;;;;5113902;28;20681;-43
2023/06/19 02:55:56;;;;;;;2.80;2.60;;;19.90;99.90;;;;;;5113945;28;20263;-42
2023/06/19 02:58:21;;;;;;;4.43;2.77;;;19.90;99.90;;;;;;5113918;28;20239;-39
2023/06/19 03:00:48;;;;;;;3.17;2.87;;;19.90;99.90;;;;;;5114486;28;20318;-40
2023/06/19 03:03:13;;;;;;;2.93;2.50;;;19.80;99.90;;;;;;5114060;28;20700;-41
2023/06/19 03:05:39;;;;;;;2.83;2.53;;;19.80;99.90;;;;;;5113743;28;20206;-39
2023/06/19 03:08:04;;;;;;;5.93;2.80;;;19.80;99.90;;;;;;5114152;28;20307;-40
2023/06/19 03:10:30;;;;;;;3.80;2.63;;;19.80;99.90;;;;;;5113682;28;20258;-47
2023/06/19 03:12:58;;;;;;;4.13;2.83;;;19.70;99.90;;;;;;5113689;28;20177;-46
2023/06/19 03:15:23;;;;;;;2.83;2.53;;;19.70;99.90;;;;;;5113635;28;20582;-46
2023/06/19 03:17:49;;;;;;;2.80;2.30;;;19.60;99.90;;;;;;5113976;28;20179;-46
2023/06/19 03:20:14;;;;;;;3.13;2.50;;;19.60;99.90;;;;;;5113667;28;20236;-46
2023/06/19 03:22:41;;;;;;;2.97;2.67;;;19.60;99.90;;;;;;5114490;28;20190;-44
2023/06/19 03:25:08;;;;;;;2.80;2.40;;;19.60;99.90;;;;;;5118168;28;20198;-46
2023/06/19 03:27:34;;;;;;;5.10;2.37;;;19.50;99.90;;;;;;5117899;28;20657;-46
2023/06/19 03:29:59;;;;;;;3.07;2.50;;;19.40;99.90;;;;;;5117750;28;20268;-47
2023/06/19 03:32:25;;;;;;;2.97;2.57;;;19.40;99.90;;;;;;5117759;28;20181;-47
2023/06/19 03:34:50;;;;;;;2.63;2.27;;;19.40;99.90;;;;;;5117665;28;20198;-46
2023/06/19 03:37:16;;;;;;;3.67;2.47;;;19.40;99.90;;;;;;5117980;28;20228;-45
2023/06/19 03:39:42;;;;;;;2.77;2.30;;;19.30;99.90;;;;;;5117659;28;20690;-47
2023/06/19 03:42:08;;;;;;;2.90;2.10;;;19.30;99.90;;;;;;5117511;28;20208;-48
2023/06/19 03:44:33;;;;;;;2.97;2.10;;;19.30;99.90;;;;;;5117742;28;20235;-46
2023/06/19 03:46:59;;;;;;;8.43;2.73;;;19.30;99.90;;;;;;5117776;28;20193;-46
2023/06/19 03:49:25;;;;;;;6.07;2.47;;;19.20;99.90;;;;;;5117380;28;20178;-46
2023/06/19 03:51:51;;;;;;;4.57;2.23;;;19.20;99.90;;;;;;5117637;28;20250;-46
2023/06/19 03:54:17;;;;;;;4.33;2.47;;;19.20;99.90;;;;;;5117361;28;20270;-45
2023/06/19 03:56:42;;;;;;;3.53;2.20;;;19.20;99.90;;;;;;5117382;28;20642;-47
2023/06/19 03:59:08;;;;;;;3.97;2.57;;;19.10;99.90;;;;;;5117643;28;20261;-45
2023/06/19 04:01:33;;;;;;;5.07;2.43;;;19.10;99.90;;;;;;5117239;28;20703;-46
2023/06/19 04:03:59;;;;;;;2.30;2.10;;;19.10;99.90;;;;;;5117419;28;20611;-46
2023/06/19 04:06:25;;;;;;;4.70;2.30;;;19.10;99.90;;;;;;5117435;28;20193;-47
2023/06/19 04:08:52;;;;;;;2.37;2.00;;;19.10;99.90;;;;;;5117175;28;20190;-44
2023/06/19 04:11:17;;;;;;;2.90;2.30;;;19.00;99.90;;;;;;5117034;28;20237;-42
2023/06/19 04:13:43;;;;;;;3.20;2.33;;;19.00;99.90;;;;;;5117168;28;20229;-43
2023/06/19 04:16:09;;;;;;;5.73;2.10;;;19.10;99.90;;;;;;5117156;28;20192;-43
2023/06/19 04:18:34;;;;;;;2.70;2.23;;;19.10;99.90;;;;;;5117168;28;20178;-43
2023/06/19 04:21:01;;;;;;;3.87;2.50;;;19.00;99.90;;;;;;5116927;28;20178;-43
2023/06/19 04:23:26;;;;;;;2.40;2.10;;;19.00;99.90;;;;;;5117252;28;20269;-45
2023/06/19 04:25:52;;;;;;;2.40;2.20;;;19.10;99.90;;;;;;5117287;28;20576;-43
2023/06/19 04:28:18;;;;;;;3.00;2.53;;;19.10;99.90;;;;;;5116762;28;20174;-41
2023/06/19 04:30:43;;;;;;;2.30;2.10;;;19.20;99.90;;;;;;5116581;28;20229;-44
2023/06/19 04:33:09;;;;;;;2.50;2.17;;;19.20;99.90;;;;;;5116629;28;20370;-43
2023/06/19 04:35:39;;;;;;;2.63;2.43;;;19.20;99.90;;;;;;5116673;28;20199;-40
2023/06/19 04:38:09;;;;;;;2.77;2.43;;;19.20;99.90;;;;;;5116830;28;20166;-42
2023/06/19 04:40:35;;;;;;;2.70;2.10;;;19.20;99.90;;;;;;5117283;28;20524;-43
2023/06/19 04:43:02;;;;;;;3.33;2.27;;;19.30;99.90;;;;;;5116191;28;20645;-44
2023/06/19 04:45:28;;;;;;;3.03;2.73;;;19.30;99.90;;;;;;5116290;28;20229;-43
2023/06/19 04:47:53;;;;;;;4.97;2.70;;;19.30;99.90;;;;;;5116540;28;20193;-44
2023/06/19 04:50:20;;;;;;;2.60;2.10;;;19.40;99.90;;;;;;5116233;28;20206;-43
2023/06/19 04:52:47;;;;;;;5.07;2.30;;;19.40;99.90;;;;;;5116290;28;20224;-41
2023/06/19 04:55:12;;;;;;;3.37;1.83;;;19.50;99.90;;;;;;5118456;28;20186;-44
2023/06/19 04:57:38;;;;;;;2.47;2.07;;;19.50;99.90;;;;;;5116554;28;20181;-44
2023/06/19 05:00:06;;;;;;;4.93;2.50;;;19.60;99.90;;;;;;5116690;28;20209;-43
2023/06/19 05:02:33;;;;;;;2.53;2.10;;;19.70;99.90;;;;;;5116197;28;20608;-41
2023/06/19 05:05:02;;;;;;;2.90;2.07;;;19.60;99.90;;;;;;5116026;28;20202;-41
2023/06/19 05:07:31;;;;;;;1.83;1.73;;;19.70;99.90;;;;;;5098324;28;20185;-43
2023/06/19 05:10:00;;;;;;;2.13;1.77;;;19.80;99.90;;;;;;5116694;28;20174;-41
2023/06/19 05:12:26;;;;;;;2.53;2.10;;;19.80;99.90;;;;;;5116465;28;20564;-43
2023/06/19 05:14:51;;;;;;;6.43;2.07;;;19.90;99.90;;;;;;5116061;28;20187;-43
2023/06/19 05:17:17;;;;;;;2.53;1.83;;;19.90;99.90;;;;;;5116401;28;20174;-42
2023/06/19 05:19:42;;;;;;;2.17;1.97;;;20.00;99.90;;;;;;5115952;28;20178;-43
2023/06/19 05:22:08;;;;;;;2.17;1.97;;;20.20;99.90;;;;;;5115604;28;20261;-43
2023/06/19 05:24:34;;;;;;;2.20;2.00;;;20.20;99.90;;;;;;5115790;28;20205;-44
2023/06/19 05:26:59;;;;;;;1.87;1.77;;;20.20;99.90;;;;;;5115808;28;20187;-43
2023/06/19 05:29:25;;;;;;;2.10;1.90;;;20.30;99.90;;;;;;5115493;28;20182;-42
2023/06/19 05:31:51;;;;;;;2.07;1.90;;;20.40;99.90;;;;;;5115527;28;20255;-41
2023/06/19 05:34:17;;;;;;;3.10;1.97;;;20.50;99.90;;;;;;5115369;28;20627;-41
2023/06/19 05:36:45;;;;;;;2.00;1.80;;;20.70;99.90;;;;;;5097064;28;20182;-43
2023/06/19 05:39:10;;;;;;;2.70;1.70;;;20.80;99.90;;;;;;5115590;28;20261;-41
2023/06/19 05:41:36;;;;;;;2.60;2.00;;;20.80;99.90;;;;;;5115416;28;20250;-43
2023/06/19 05:44:01;;;;;;;2.80;2.03;;;20.90;99.90;;;;;;5115477;28;20225;-43
2023/06/19 05:46:27;;;;;;;6.10;1.97;;;20.90;99.90;;;;;;5114783;28;20180;-44
2023/06/19 05:48:54;;;;;;;1.97;1.70;;;20.90;99.90;;;;;;5115162;28;20631;-44
2023/06/19 05:51:20;;;;;;;1.70;1.60;;;20.90;99.90;;;;;;5115011;28;20213;-42
2023/06/19 05:53:46;;;;;;;2.10;1.90;;;20.90;99.90;;;;;;5115287;28;20566;-43
2023/06/19 05:56:12;;;;;;;3.87;1.67;;;20.90;99.90;;;;;;5115055;28;20174;-43
2023/06/19 05:58:38;;;;;;;4.53;2.00;;;21.00;99.90;;;;;;5115180;28;20178;-41
2023/06/19 06:01:04;;;;;;;2.63;1.93;;;20.90;99.90;;;;;;5114885;28;20170;-43
2023/06/19 06:03:30;;;;;;;2.00;1.90;;;20.90;99.90;;;;;;5114768;28;20243;-41
2023/06/19 06:06:02;;;;;;;1.70;1.60;;;20.80;99.90;;;;;;5115369;28;20177;-42
2023/06/19 06:08:29;;;;;;;3.73;2.10;;;20.80;99.90;;;;;;5115057;28;20258;-44
2023/06/19 06:10:55;;;;;;;3.43;2.20;;;20.80;99.90;;;;;;5114673;28;20288;-42
2023/06/19 06:13:20;;;;;;;2.40;1.97;;;20.80;99.90;;;;;;5115220;28;20198;-42
2023/06/19 06:15:46;;;;;;;2.83;2.13;;;20.70;99.90;;;;;;5114895;28;20190;-42
2023/06/19 06:18:11;;;;;;;2.80;2.27;;;20.70;99.90;;;;;;5114607;28;20171;-42
2023/06/19 06:20:37;;;;;;;5.60;2.13;;;20.70;99.90;;;;;;5114518;28;20728;-45
2023/06/19 06:23:03;;;;;;;2.47;2.10;;;20.70;99.90;;;;;;5114472;28;20185;-44
2023/06/19 06:25:28;;;;;;;3.33;2.00;;;20.60;99.90;;;;;;5096187;28;20209;-43
2023/06/19 06:27:54;;;;;;;2.50;2.00;;;20.70;99.90;;;;;;5114422;28;20546;-42
2023/06/19 06:30:20;;;;;;;3.37;2.13;;;20.70;99.90;;;;;;5114577;28;20279;-45
2023/06/19 06:32:45;;;;;;;6.33;2.50;;;20.80;99.90;;;;;;5114333;28;20249;-43
2023/06/19 06:35:11;;;;;;;4.20;2.03;;;20.80;99.90;;;;;;5114203;28;20717;-43
2023/06/19 06:37:36;;;;;;;3.17;2.30;;;20.90;99.90;;;;;;5114486;28;20662;-46
2023/06/19 06:40:06;;;;;;;2.47;2.27;;;20.90;99.90;;;;;;5096021;28;20180;-42
2023/06/19 06:42:31;;;;;;;4.00;2.00;;;20.80;99.90;;;;;;5114085;28;20182;-44
2023/06/19 06:44:57;;;;;;;3.70;2.43;;;20.80;99.90;;;;;;5114402;28;20197;-45
2023/06/19 06:47:22;;;;;;;2.60;2.23;;;20.70;99.90;;;;;;5114126;28;20598;-44
2023/06/19 06:49:48;;;;;;;8.10;2.70;;;20.50;99.90;;;;;;5114318;28;20634;-45
2023/06/19 06:52:13;;;;;;;4.43;2.30;;;20.50;99.90;;;;;;5113885;28;20255;-42
2023/06/19 06:54:39;;;;;;;3.50;2.53;;;20.40;99.90;;;;;;5113887;28;20659;-42
2023/06/19 06:57:05;;;;;;;4.07;2.40;;;20.30;99.90;;;;;;5113196;28;20171;-44
2023/06/19 06:59:30;;;;;;;2.30;2.10;;;20.30;99.90;;;;;;5114088;28;20178;-43
2023/06/19 07:01:56;;;;;;;5.63;2.60;;;20.30;99.90;;;;;;5113966;28;20639;-41
2023/06/19 07:04:22;;;;;;;2.43;1.90;;;20.30;99.90;;;;;;5113820;28;20214;-43
2023/06/19 07:06:48;;;;;;;2.80;1.90;;;20.30;99.90;;;;;;5113955;28;20174;-43
2023/06/19 07:09:15;;;;;;;4.87;2.40;;;20.30;99.90;;;;;;5113926;28;20261;-44
2023/06/19 07:11:40;;;;;;;4.20;2.17;;;20.50;99.90;;;;;;5113723;28;20197;-45
2023/06/19 07:14:06;;;;;;;5.93;2.37;;;20.50;99.90;;;;;;5113861;28;20190;-45
2023/06/19 07:16:32;;;;;;;4.57;2.40;;;20.70;99.90;;;;;;5113967;28;20170;-43
2023/06/19 07:18:57;;;;;;;4.17;2.53;;;20.90;99.90;;;;;;5095450;28;20170;-44
2023/06/19 07:21:23;;;;;;;5.00;2.60;;;21.00;99.90;;;;;;5114376;28;20209;-43
2023/06/19 07:23:49;;;;;;;4.40;3.00;;;21.20;99.90;;;;;;5113678;28;20223;-43
2023/06/19 07:26:15;;;;;;;4.73;2.30;;;21.20;99.90;;;;;;5113945;28;20261;-43
2023/06/19 07:28:41;;;;;;;2.60;2.00;;;21.40;99.90;;;;;;5113635;28;20256;-43
2023/06/19 07:31:07;;;;;;;5.57;2.47;;;21.50;99.90;;;;;;5113591;28;20209;-43
2023/06/19 07:33:32;;;;;;;2.77;2.47;;;21.50;99.90;;;;;;5113539;28;20174;-43
2023/06/19 07:35:58;;;;;;;3.93;2.63;;;21.70;99.90;;;;;;5113602;28;20531;-44
2023/06/19 07:38:24;;;;;;;4.37;2.03;;;21.70;99.90;;;;;;5113516;28;20243;-45
2023/06/19 07:40:50;;;;;;;5.87;2.63;;;21.80;99.90;;;;;;5113553;28;20200;-43
2023/06/19 07:43:17;;;;;;;2.87;2.27;;;21.80;99.90;;;;;;5113492;28;20193;-44
2023/06/19 07:45:42;;;;;;;6.47;2.60;;;21.90;99.90;;;;;;5113708;28;20205;-43
2023/06/19 07:48:08;;;;;;;4.07;2.70;;;22.00;99.90;;;;;;5113482;28;20170;-45
2023/06/19 07:50:34;;;;;;;7.13;2.40;;;22.10;99.90;;;;;;5113297;28;20237;-44
2023/06/19 07:52:59;;;;;;;3.70;2.43;;;22.10;99.90;;;;;;5113572;28;20184;-44
2023/06/19 07:55:25;;;;;;;3.27;2.23;;;22.20;99.90;;;;;;5113594;28;20199;-44
2023/06/19 07:57:52;;;;;;;5.03;2.70;;;22.40;99.90;;;;;;5113403;28;20227;-43
2023/06/19 08:00:18;;;;;;;2.50;2.17;;;22.60;99.90;;;;;;5113241;28;20174;-43
2023/06/19 08:02:43;;;;;;;3.67;2.60;;;22.80;99.90;;;;;;5113575;28;20182;-44
2023/06/19 08:05:10;;;;;;;4.20;2.57;;;22.90;99.90;;;;;;5113196;28;20753;-44
2023/06/19 08:07:36;;;;;;;2.40;2.20;;;23.10;99.90;;;;;;5113266;28;20642;-44
2023/06/19 08:10:03;;;;;;;2.30;2.10;;;23.20;99.90;;;;;;5116113;28;20171;-45
2023/06/19 08:12:29;;;;;;;8.30;3.00;;;23.40;99.90;;;;;;5116920;28;20213;-44
2023/06/19 08:14:55;;;;;;;4.63;2.47;;;23.60;99.90;;;;;;5117146;28;20186;-43
2023/06/19 08:17:21;;;;;;;2.37;2.17;;;23.70;99.90;;;;;;5116987;28;20178;-43
2023/06/19 08:19:47;;;;;;;4.10;2.40;;;23.70;99.90;;;;;;5117147;28;20565;-45
2023/06/19 08:22:12;;;;;;;6.03;2.53;;;23.70;99.90;;;;;;5117100;28;20266;-44
2023/06/19 08:24:40;;;;;;;3.67;2.83;;;23.90;99.90;;;;;;5116745;28;20231;-44
2023/06/19 08:27:06;;;;;;;9.00;2.70;;;24.00;99.90;;;;;;5117055;28;20178;-43
2023/06/19 08:29:32;;;;;;;4.60;2.83;;;24.10;99.90;;;;;;5116791;28;20181;-41
2023/06/19 08:31:58;;;;;;;4.00;2.50;;;24.10;99.90;;;;;;5116637;28;20708;-43
2023/06/19 08:34:23;;;;;;;5.10;2.73;;;24.10;99.90;;;;;;5116517;28;20202;-42
2023/06/19 08:36:49;;;;;;;4.93;3.00;;;24.20;99.90;;;;;;5116583;28;20227;-44
2023/06/19 08:39:15;;;;;;;4.23;2.87;;;24.20;99.90;;;;;;5116575;28;20183;-43
2023/06/19 08:41:42;;;;;;;5.47;2.93;;;24.20;99.90;;;;;;5116661;28;20201;-43
2023/06/19 08:44:09;;;;;;;6.27;3.00;;;24.30;99.90;;;;;;5116584;28;20206;-44
2023/06/19 08:46:37;;;;;;;2.97;2.50;;;24.40;99.90;;;;;;5098178;28;20197;-43
2023/06/19 08:49:03;;;;;;;5.60;2.67;;;24.40;99.90;;;;;;5116338;28;20177;-43
2023/06/19 08:51:30;;;;;;;7.37;2.93;;;24.50;99.90;;;;;;5116247;28;20653;-43
2023/06/19 08:54:01;;;;;;;6.30;3.00;;;24.50;99.90;;;;;;5116391;28;20288;-44
2023/06/19 08:56:27;;;;;;;3.70;2.90;;;24.60;99.90;;;;;;5116481;28;20207;-44
2023/06/19 08:58:53;;;;;;;4.40;2.57;;;24.60;99.90;;;;;;5116748;28;20176;-45
2023/06/19 09:01:19;;;;;;;4.73;2.67;;;24.70;99.90;;;;;;5116162;28;20677;-44
2023/06/19 09:03:46;;;;;;;5.63;2.90;;;24.70;99.90;;;;;;5116228;28;20202;-44
2023/06/19 09:06:16;;;;;;;5.20;2.57;;;24.80;99.90;;;;;;5116750;28;20186;-42
2023/06/19 09:08:41;;;;;;;4.73;2.47;;;24.90;99.90;;;;;;5115936;28;20181;-41
2023/06/19 09:11:07;;;;;;;4.63;2.60;;;25.00;99.90;;;;;;5116145;28;20201;-44
2023/06/19 09:13:33;;;;;;;3.57;2.63;;;25.10;99.90;;;;;;5115872;28;20167;-44
2023/06/19 09:16:02;;;;;;;9.13;2.80;;;25.20;99.90;;;;;;5116113;28;20634;-45
2023/06/19 09:18:41;;;;;;;7.67;2.90;;;25.20;99.90;;;;;;5115878;28;20170;-44
2023/06/19 09:21:18;;;;;;;4.67;2.83;;;25.20;99.90;;;;;;5115121;28;20159;-44
2023/06/19 09:23:44;;;;;;;5.70;2.90;;;25.20;99.90;;;;;;5115927;28;20194;-44
2023/06/19 09:26:13;;;;;;;4.27;2.80;;;25.30;99.90;;;;;;5115921;28;20178;-44
2023/06/19 09:28:42;;;;;;;5.30;2.87;;;25.30;99.90;;;;;;5115647;28;20837;-45
2023/06/19 09:31:08;;;;;;;5.50;2.87;;;25.40;99.90;;;;;;5115757;28;20201;-44
2023/06/19 09:33:35;;;;;;;4.27;2.60;;;25.60;99.90;;;;;;5115648;28;20201;-45
2023/06/19 09:36:02;;;;;;;5.83;2.97;;;25.70;99.90;;;;;;5115411;28;20175;-46
2023/06/19 09:38:29;;;;;;;4.13;3.20;;;25.80;99.90;;;;;;5115690;28;20548;-44
2023/06/19 09:40:56;;;;;;;4.73;3.00;;;25.80;99.90;;;;;;5115397;28;20178;-44
2023/06/19 09:43:40;;;;;;;6.47;2.97;;;25.80;99.90;;;;;;5115093;28;20673;-44
2023/06/19 09:46:07;;;;;;;5.20;3.10;;;25.90;99.90;;;;;;5115293;28;20201;-43
2023/06/19 09:48:34;;;;;;;5.03;3.17;;;26.10;99.90;;;;;;5115438;28;20186;-43
2023/06/19 09:51:11;;;;;;;4.73;2.97;;;26.20;99.90;;;;;;5115285;28;20205;-45
2023/06/19 09:53:37;;;;;;;5.90;2.70;;;26.30;99.90;;;;;;5115132;28;20163;-44
2023/06/19 09:56:03;;;;;;;6.33;3.30;;;26.40;99.90;;;;;;5114983;28;20181;-46
2023/06/19 09:58:30;;;;;;;5.37;3.33;;;26.50;99.90;;;;;;5115042;28;20638;-46
2023/06/19 10:00:57;;;;;;;6.17;3.43;;;26.50;99.90;;;;;;5114991;28;20174;-45
2023/06/19 10:03:31;;;;;;;5.37;2.90;;;26.60;99.90;;;;;;5114804;28;20669;-44
2023/06/19 10:06:01;;;;;;;7.13;3.43;;;26.70;99.90;;;;;;5114803;28;20630;-46
2023/06/19 10:08:31;;;;;;;6.30;3.40;;;26.80;99.90;;;;;;5115026;28;20269;-44
2023/06/19 10:10:57;;;;;;;4.90;3.08;;;26.90;99.90;;;;;;5114925;28;20198;-44
2023/06/19 10:13:35;;;;;;;3.93;3.17;;;26.90;99.90;;;;;;5114873;28;20177;-45
2023/06/19 10:16:01;;;;;;;4.20;3.70;;;27.00;99.90;;;;;;5114978;28;20159;-46
2023/06/19 10:18:26;;;;;;;4.30;3.07;;;27.00;99.90;;;;;;5114665;28;20639;-43
2023/06/19 10:20:54;;;;;;;4.68;3.17;;;27.10;99.90;;;;;;5114917;28;20174;-44
2023/06/19 10:23:23;;;;;;;4.35;3.00;;;27.20;99.90;;;;;;5114748;28;20205;-45
2023/06/19 10:25:54;;;;;;;5.05;3.30;;;27.20;99.90;;;;;;5114795;28;20202;-45
2023/06/19 10:28:22;;;;;;;4.82;3.20;;;27.30;99.90;;;;;;5114778;28;20159;-44
2023/06/19 10:30:54;;;;;;;4.20;2.72;;;27.40;99.90;;;;;;5114541;28;20209;-46
2023/06/19 10:33:20;;;;;;;5.15;3.28;;;27.50;99.90;;;;;;5114448;28;20174;-46
2023/06/19 10:35:46;;;;;;;3.97;3.28;;;27.60;99.90;;;;;;5114237;28;20221;-44
2023/06/19 10:38:15;;;;;;;3.53;3.22;;;27.50;99.90;;;;;;5095949;28;20174;-45
2023/06/19 10:40:40;;;;;;;6.22;3.28;;;27.40;99.90;;;;;;5114499;28;20181;-45
2023/06/19 10:43:06;;;;;;;5.05;3.20;;;27.50;99.90;;;;;;5114186;28;20195;-44
2023/06/19 10:45:32;;;;;;;7.70;3.20;;;27.60;99.90;;;;;;5116459;28;20194;-44
2023/06/19 10:48:04;;;;;;;4.32;3.22;;;27.80;99.90;;;;;;5114445;28;20261;-45
2023/06/19 10:50:36;;;;;;;6.30;2.88;;;27.90;99.90;;;;;;5114438;28;20647;-45
2023/06/19 10:53:02;;;;;;;4.78;3.13;;;27.90;99.90;;;;;;5114850;28;20159;-46
2023/06/19 10:55:27;;;;;;;6.85;3.22;;;28.00;99.90;;;;;;5114984;28;20190;-45
2023/06/19 10:57:53;;;;;;;8.48;3.15;;;28.10;99.90;;;;;;5114824;28;20170;-45
2023/06/19 11:00:33;;;;;;;3.90;3.10;;;28.10;99.90;;;;;;5114010;28;20698;-44
2023/06/19 11:02:58;;;;;;;9.13;3.58;;;28.20;99.90;;;;;;5114151;28;20154;-44
2023/06/19 11:05:26;;;;;;;3.90;3.20;;;28.30;99.90;;;;;;5095558;28;20566;-44
2023/06/19 11:07:57;;;;;;;5.32;3.17;;;28.50;99.90;;;;;;5114005;28;20235;-44
2023/06/19 11:10:25;;;;;;;5.28;3.08;;;28.50;99.90;;;;;;5113777;28;20642;-44
2023/06/19 11:12:58;;;;;;;5.50;3.20;;;28.60;99.90;;;;;;5113748;28;20185;-45
2023/06/19 11:15:31;;;;;;;4.80;3.20;;;28.60;99.90;;;;;;5113655;28;20198;-43
2023/06/19 11:17:58;;;;;;;4.32;3.38;;;28.60;99.90;;;;;;5113838;28;20166;-44
2023/06/19 11:20:25;;;;;;;4.43;3.38;;;28.80;99.90;;;;;;5113715;28;20174;-45
2023/06/19 11:22:56;;;;;;;3.83;2.90;;;28.90;99.90;;;;;;5113896;28;20182;-45
2023/06/19 11:25:22;;;;;;;6.93;3.35;;;29.10;99.90;;;;;;5113870;28;20198;-45
2023/06/19 11:27:52;;;;;;;5.28;3.58;;;29.30;99.90;;;;;;5113656;28;20174;-45
2023/06/19 11:30:20;;;;;;;4.93;3.30;;;29.30;99.90;;;;;;5113528;28;20162;-45
2023/06/19 11:32:48;;;;;;;3.80;3.13;;;29.50;99.90;;;;;;5113810;28;20565;-45
2023/06/19 11:35:16;;;;;;;4.72;3.22;;;29.60;99.90;;;;;;5113746;28;20613;-43
2023/06/19 11:37:46;;;;;;;4.63;3.30;;;29.80;99.90;;;;;;5113593;28;20266;-43
2023/06/19 11:40:20;;;;;;;5.38;3.35;;;30.00;99.90;;;;;;5113749;28;20234;-44
2023/06/19 11:42:52;;;;;;;5.13;3.35;;;30.00;99.90;;;;;;5113326;28;20198;-45
2023/06/19 11:45:17;;;;;;;7.68;3.25;;;30.00;99.90;;;;;;5117308;28;20580;-43
2023/06/19 11:47:45;;;;;;;6.85;3.70;;;30.00;99.90;;;;;;5117788;28;20174;-44
2023/06/19 11:50:10;;;;;;;5.15;3.42;;;30.00;99.90;;;;;;5099234;28;20178;-46
2023/06/19 11:52:36;;;;;;;4.50;3.40;;;30.10;99.90;;;;;;5117521;28;20208;-44
2023/06/19 11:55:02;;;;;;;4.20;3.05;;;30.20;99.90;;;;;;5117519;28;20190;-43
2023/06/19 11:57:28;;;;;;;7.10;3.22;;;30.10;99.90;;;;;;5117291;28;20174;-44
2023/06/19 11:59:53;;;;;;;6.43;3.30;;;30.10;99.90;;;;;;5117383;28;20261;-44
2023/06/19 12:02:19;;;;;;;4.32;3.58;;;30.20;99.90;;;;;;5117304;28;20170;-47
2023/06/19 12:04:45;;;;;;;4.45;3.00;;;30.30;99.90;;;;;;5117972;28;20206;-44
2023/06/19 12:07:11;;;;;;;3.55;3.20;;;30.40;99.90;;;;;;5117181;28;20178;-45
2023/06/19 12:09:38;;;;;;;5.63;3.63;;;30.50;99.90;;;;;;5117316;28;20193;-45
2023/06/19 12:12:05;;;;;;;9.02;3.40;;;30.50;99.90;;;;;;5117262;28;20217;-45
2023/06/19 12:14:30;;;;;;;4.88;2.90;;;30.50;99.90;;;;;;5117753;28;20183;-45
2023/06/19 12:16:56;;;;;;;5.93;3.40;;;30.50;99.90;;;;;;5117292;28;20514;-43
2023/06/19 12:19:21;;;;;;;5.25;3.00;;;30.50;99.90;;;;;;5116882;28;20173;-44
2023/06/19 12:21:47;;;;;;;4.03;2.97;;;30.40;99.90;;;;;;5116943;28;20199;-44
2023/06/19 12:24:13;;;;;;;4.95;3.22;;;30.30;99.90;;;;;;5116879;28;20201;-44
2023/06/19 12:26:39;;;;;;;7.57;3.20;;;30.40;99.90;;;;;;5116851;28;20224;-43
2023/06/19 12:29:06;;;;;;;5.65;3.13;;;30.50;99.90;;;;;;5117262;28;20179;-44
2023/06/19 12:31:33;;;;;;;4.28;3.38;;;30.50;99.90;;;;;;5117050;28;20696;-44
2023/06/19 12:34:01;;;;;;;5.43;3.20;;;30.50;99.90;;;;;;5116860;28;20752;-44
2023/06/19 12:36:26;;;;;;;6.97;3.55;;;30.50;99.90;;;;;;5117034;28;20231;-43
2023/06/19 12:38:53;;;;;;;3.60;3.28;;;30.50;99.90;;;;;;5116682;28;20182;-44
2023/06/19 12:41:20;;;;;;;4.07;3.17;;;30.70;99.90;;;;;;5116948;28;20182;-44
2023/06/19 12:43:46;;;;;;;4.40;3.25;;;30.80;99.90;;;;;;5116601;28;20682;-45
2023/06/19 12:46:14;;;;;;;3.67;3.17;;;30.80;99.90;;;;;;5116801;28;20197;-44